createdAt,value
2023-07-03T00:02:52.526Z,2.67
2023-07-03T00:05:55.350Z,2.80
2023-07-03T00:08:57.039Z,3.05
2023-07-03T00:11:58.798Z,3.00
2023-07-03T00:15:00.414Z,2.77
2023-07-03T00:18:02.305Z,2.83
2023-07-03T00:21:04.085Z,2.70
2023-07-03T00:24:06.070Z,2.83
2023-07-03T00:27:08.057Z,2.90
2023-07-03T00:30:10.317Z,3.10
2023-07-03T00:33:12.584Z,2.83
2023-07-03T00:36:14.253Z,2.80
2023-07-03T00:39:16.043Z,2.92
2023-07-03T00:42:17.755Z,2.88
2023-07-03T00:45:20.861Z,2.60
2023-07-03T00:48:22.472Z,2.90
2023-07-03T00:51:24.977Z,3.30
2023-07-03T00:54:26.706Z,3.00
2023-07-03T00:57:29.979Z,2.92
2023-07-03T01:00:42.344Z,2.70
2023-07-03T01:04:00.835Z,3.10
2023-07-03T01:07:07.180Z,3.15
2023-07-03T01:10:13.882Z,3.00
2023-07-03T01:13:18.163Z,2.88
2023-07-03T01:16:20.698Z,2.80
2023-07-03T01:19:30.495Z,2.90
2023-07-03T01:22:48.070Z,3.33
2023-07-03T01:25:51.878Z,2.95
2023-07-03T01:28:57.135Z,2.88
2023-07-03T01:31:59.623Z,2.90
2023-07-03T01:35:03.345Z,2.92
2023-07-03T01:38:06.696Z,3.15
2023-07-03T01:41:09.613Z,3.03
2023-07-03T01:44:11.361Z,3.15
2023-07-03T01:47:14.872Z,3.07
2023-07-03T01:50:20.638Z,2.83
2023-07-03T01:53:28.717Z,3.30
2023-07-03T01:56:36.388Z,3.00
2023-07-03T01:59:38.321Z,3.20
2023-07-03T02:02:43.476Z,3.10
2023-07-03T02:05:46.702Z,2.88
2023-07-03T02:08:50.629Z,3.00
2023-07-03T02:11:53.588Z,3.13
2023-07-03T02:14:55.482Z,3.47
2023-07-03T02:17:58.352Z,3.00
2023-07-03T02:21:01.134Z,3.00
2023-07-03T02:24:03.177Z,3.30
2023-07-03T02:27:05.276Z,2.80
2023-07-03T02:30:07.525Z,3.13
2023-07-03T02:33:09.115Z,3.00
2023-07-03T02:36:10.743Z,3.17
2023-07-03T02:39:12.742Z,3.05
2023-07-03T02:42:14.447Z,2.95
2023-07-03T02:45:16.814Z,2.80
2023-07-03T02:48:18.741Z,2.70
2023-07-03T02:51:20.585Z,3.42
2023-07-03T02:54:22.200Z,3.08
2023-07-03T02:57:23.911Z,3.20
2023-07-03T03:00:25.862Z,3.22
2023-07-03T03:03:27.588Z,3.27
2023-07-03T03:06:29.416Z,3.20
2023-07-03T03:09:31.052Z,3.42
2023-07-03T03:12:32.702Z,3.30
2023-07-03T03:15:36.035Z,2.80
2023-07-03T03:18:37.674Z,3.27
2023-07-03T03:21:39.544Z,3.40
2023-07-03T03:24:41.320Z,3.10
2023-07-03T03:27:42.975Z,3.10
2023-07-03T03:30:44.693Z,3.15
2023-07-03T03:33:46.325Z,3.20
2023-07-03T03:36:47.896Z,3.20
2023-07-03T03:39:49.696Z,3.22
2023-07-03T03:42:51.341Z,3.30
2023-07-03T03:46:03.083Z,3.42
2023-07-03T03:49:04.808Z,3.20
2023-07-03T03:52:07.270Z,3.00
2023-07-03T03:55:09.222Z,3.38
2023-07-03T03:58:11.472Z,3.30
2023-07-03T04:01:14.253Z,3.40
2023-07-03T04:04:16.925Z,2.97
2023-07-03T04:07:18.574Z,3.25
2023-07-03T04:10:20.237Z,3.05
2023-07-03T04:13:21.879Z,3.55
2023-07-03T04:16:25.571Z,3.30
2023-07-03T04:19:29.597Z,3.03
2023-07-03T04:22:31.165Z,3.28
2023-07-03T04:25:33.049Z,3.30
2023-07-03T04:28:34.670Z,3.20
2023-07-03T04:31:37.210Z,3.33
2023-07-03T04:34:38.961Z,3.00
2023-07-03T04:37:40.620Z,3.47
2023-07-03T04:40:42.195Z,3.30
2023-07-03T04:43:46.082Z,3.13
2023-07-03T04:46:47.780Z,3.40
2023-07-03T04:49:50.096Z,3.07
2023-07-03T04:52:52.758Z,3.55
2023-07-03T04:55:54.623Z,3.40
2023-07-03T04:58:56.602Z,3.20
2023-07-03T05:01:58.311Z,3.10
2023-07-03T05:05:00.121Z,3.17
2023-07-03T05:08:01.860Z,3.20
2023-07-03T05:11:03.668Z,2.90
2023-07-03T05:14:05.285Z,3.15
2023-07-03T05:17:06.945Z,3.00
2023-07-03T05:20:11.300Z,3.17
2023-07-03T05:23:16.415Z,3.20
2023-07-03T05:26:18.424Z,3.20
2023-07-03T05:29:20.187Z,3.05
2023-07-03T05:32:21.805Z,3.22
2023-07-03T05:35:23.502Z,3.00
2023-07-03T05:38:25.097Z,3.85
2023-07-03T05:41:26.686Z,3.08
2023-07-03T05:44:28.851Z,3.00
2023-07-03T05:47:30.693Z,3.10
2023-07-03T05:50:32.398Z,3.17
2023-07-03T05:53:34.030Z,3.15
2023-07-03T05:56:35.660Z,2.90
2023-07-03T05:59:39.135Z,2.83
2023-07-03T06:02:45.340Z,2.95
2023-07-03T06:05:47.133Z,2.90
2023-07-03T06:08:48.727Z,2.90
2023-07-03T06:11:50.446Z,2.80
2023-07-03T06:14:52.056Z,2.70
2023-07-03T06:17:53.816Z,2.15
2023-07-03T06:20:55.414Z,2.30
2023-07-03T06:23:57.020Z,2.58
2023-07-03T06:26:59.068Z,2.40
2023-07-03T06:30:00.676Z,2.70
2023-07-03T06:33:02.404Z,2.40
2023-07-03T06:36:04.224Z,2.73
2023-07-03T06:39:06.028Z,2.47
2023-07-03T06:42:08.470Z,2.83
2023-07-03T06:45:10.520Z,2.65
2023-07-03T06:48:12.252Z,2.67
2023-07-03T06:51:15.413Z,2.80
2023-07-03T06:54:17.412Z,3.35
2023-07-03T06:57:19.041Z,3.30
2023-07-03T07:00:21.068Z,3.78
2023-07-03T07:03:22.908Z,3.70
2023-07-03T07:06:27.668Z,3.63
2023-07-03T07:09:29.319Z,3.97
2023-07-03T07:12:31.019Z,4.05
2023-07-03T07:15:37.388Z,4.20
2023-07-03T07:18:39.228Z,4.22
2023-07-03T07:21:44.417Z,4.07
2023-07-03T07:24:46.023Z,4.30
2023-07-03T07:27:47.621Z,4.40
2023-07-03T07:30:50.121Z,4.78
2023-07-03T07:33:52.718Z,4.65
2023-07-03T07:36:54.443Z,4.40
2023-07-03T07:39:56.022Z,4.70
2023-07-03T07:42:57.631Z,4.93
2023-07-03T07:45:59.361Z,5.10
2023-07-03T07:49:02.066Z,4.93
2023-07-03T07:52:06.281Z,5.03
2023-07-03T07:55:08.260Z,5.25
2023-07-03T07:58:10.009Z,5.18
2023-07-03T08:01:15.565Z,4.90
2023-07-03T08:04:17.706Z,5.47
2023-07-03T08:07:19.434Z,5.20
2023-07-03T08:10:21.148Z,5.70
2023-07-03T08:13:23.607Z,5.35
2023-07-03T08:16:25.319Z,5.32
2023-07-03T08:19:27.035Z,5.40
2023-07-03T08:22:28.871Z,5.60
2023-07-03T08:25:30.745Z,5.45
2023-07-03T08:28:32.444Z,5.50
2023-07-03T08:31:34.741Z,5.40
2023-07-03T08:34:36.712Z,5.38
2023-07-03T08:37:38.924Z,5.30
2023-07-03T08:40:42.105Z,5.50
2023-07-03T08:43:48.179Z,5.72
2023-07-03T08:47:06.028Z,5.43
2023-07-03T08:50:27.921Z,6.05
2023-07-03T08:53:39.127Z,5.70
2023-07-03T08:56:41.212Z,5.65
2023-07-03T08:59:42.819Z,5.93
2023-07-03T09:02:53.782Z,6.25
2023-07-03T09:06:14.120Z,6.35
2023-07-03T09:09:27.080Z,5.77
2023-07-03T09:12:35.267Z,5.45
2023-07-03T09:15:53.810Z,5.47
2023-07-03T09:19:07.146Z,5.38
2023-07-03T09:22:15.368Z,5.47
2023-07-03T09:25:37.874Z,5.30
2023-07-03T09:28:43.573Z,5.28
2023-07-03T09:31:45.253Z,6.10
2023-07-03T09:35:08.368Z,5.65
2023-07-03T09:38:13.275Z,5.72
2023-07-03T09:41:24.780Z,5.60
2023-07-03T09:44:26.364Z,5.80
2023-07-03T09:47:32.828Z,5.55
2023-07-03T09:50:37.213Z,5.60
2023-07-03T09:53:40.546Z,5.47
2023-07-03T09:56:42.181Z,4.87
2023-07-03T09:59:43.760Z,4.97
2023-07-03T10:12:13.440Z,4.70
2023-07-03T10:15:24.249Z,4.95
2023-07-03T10:18:25.868Z,5.00
2023-07-03T10:21:27.760Z,4.70
2023-07-03T10:24:33.180Z,5.18
2023-07-03T10:27:36.977Z,4.83
2023-07-03T10:30:44.110Z,5.13
2023-07-03T10:33:49.749Z,5.10
2023-07-03T10:36:56.982Z,5.35
2023-07-03T10:40:05.773Z,5.28
2023-07-03T10:43:11.889Z,5.17
2023-07-03T10:46:20.568Z,4.88
2023-07-03T10:49:41.406Z,4.97
2023-07-03T10:52:55.378Z,4.90
2023-07-03T10:56:12.448Z,4.90
2023-07-03T10:59:18.631Z,4.63
2023-07-03T11:02:46.068Z,4.50
2023-07-03T11:06:20.663Z,4.70
2023-07-03T11:09:42.964Z,4.47
2023-07-03T11:12:57.772Z,4.68
2023-07-03T11:16:12.696Z,4.20
2023-07-03T11:29:10.330Z,4.20
2023-07-03T11:32:14.433Z,4.10
2023-07-03T11:45:02.715Z,4.70
2023-07-03T11:48:04.708Z,4.77
2023-07-03T11:51:14.848Z,4.75
2023-07-03T11:54:18.552Z,5.03
2023-07-03T11:57:32.933Z,4.97
2023-07-03T12:00:35.754Z,5.00
2023-07-03T12:04:01.984Z,5.23
2023-07-03T12:07:03.860Z,5.32
2023-07-03T12:10:37.044Z,5.15
2023-07-03T12:13:51.415Z,5.45
2023-07-03T12:16:53.822Z,5.20
2023-07-03T12:20:08.503Z,5.10
2023-07-03T12:23:10.141Z,5.07
2023-07-03T12:26:14.294Z,5.20
2023-07-03T12:29:21.242Z,5.18
2023-07-03T12:32:43.188Z,4.97
2023-07-03T12:35:45.218Z,5.15
2023-07-03T12:38:47.141Z,5.28
2023-07-03T12:41:48.944Z,5.10
2023-07-03T12:44:52.020Z,5.25
2023-07-03T12:48:09.777Z,5.40
2023-07-03T12:51:17.407Z,5.03
2023-07-03T12:54:20.046Z,5.07
2023-07-03T12:57:22.905Z,5.33
2023-07-03T13:00:31.774Z,5.75
2023-07-03T13:03:39.039Z,5.20
2023-07-03T13:06:44.604Z,5.47
2023-07-03T13:09:46.379Z,5.57
2023-07-03T13:13:18.573Z,5.17
2023-07-03T13:16:21.633Z,5.65
2023-07-03T13:19:35.243Z,5.78
2023-07-03T13:22:36.950Z,5.53
2023-07-03T13:25:42.128Z,5.63
2023-07-03T13:29:01.875Z,5.60
2023-07-03T13:32:33.061Z,5.47
2023-07-03T13:35:47.919Z,5.20
2023-07-03T13:39:18.948Z,5.30
2023-07-03T13:42:20.708Z,5.15
2023-07-03T13:45:24.281Z,5.50
2023-07-03T13:48:27.753Z,5.45
2023-07-03T13:51:30.811Z,4.97
2023-07-03T13:54:33.769Z,5.30
2023-07-03T13:57:35.363Z,5.55
2023-07-03T14:00:36.978Z,5.20
2023-07-03T14:03:38.878Z,4.95
2023-07-03T14:06:40.499Z,5.28
2023-07-03T14:09:42.169Z,5.10
2023-07-03T14:12:43.780Z,4.93
2023-07-03T14:15:45.430Z,4.90
2023-07-03T14:18:47.428Z,5.10
2023-07-03T14:21:50.553Z,5.35
2023-07-03T14:24:52.161Z,5.07
2023-07-03T14:27:54.165Z,5.45
2023-07-03T14:30:55.860Z,4.90
2023-07-03T14:33:57.596Z,5.45
2023-07-03T14:37:04.316Z,5.90
2023-07-03T14:40:06.797Z,5.18
2023-07-03T14:43:09.801Z,4.88
2023-07-03T14:46:11.411Z,5.30
2023-07-03T14:49:14.900Z,5.15
2023-07-03T14:52:17.305Z,5.05
2023-07-03T14:55:19.229Z,5.03
2023-07-03T14:58:20.962Z,5.18
2023-07-03T15:01:22.623Z,4.80
2023-07-03T15:04:24.468Z,5.00
2023-07-03T15:07:26.346Z,5.00
2023-07-03T15:10:28.025Z,5.00
2023-07-03T15:13:29.673Z,5.13
2023-07-03T15:16:33.190Z,5.00
2023-07-03T15:19:34.894Z,4.93
2023-07-03T15:22:36.620Z,5.00
2023-07-03T15:25:38.278Z,5.13
2023-07-03T15:28:39.874Z,5.35
2023-07-03T15:31:42.232Z,5.50
2023-07-03T15:34:44.726Z,5.35
2023-07-03T15:37:46.461Z,4.90
2023-07-03T15:40:55.331Z,5.07
2023-07-03T15:43:57.848Z,4.95
2023-07-03T15:46:59.603Z,5.00
2023-07-03T15:50:01.254Z,4.88
2023-07-03T15:53:03.050Z,4.95
2023-07-03T15:56:09.758Z,5.13
2023-07-03T15:59:12.087Z,5.30
2023-07-03T16:02:13.778Z,5.50
2023-07-03T16:05:15.615Z,4.88
2023-07-03T16:08:17.267Z,5.03
2023-07-03T16:11:21.357Z,5.00
2023-07-03T16:14:23.103Z,5.13
2023-07-03T16:17:24.840Z,5.20
2023-07-03T16:20:26.564Z,5.13
2023-07-03T16:23:30.423Z,5.03
2023-07-03T16:26:32.112Z,5.00
2023-07-03T16:29:33.810Z,5.45
2023-07-03T16:32:35.437Z,5.23
2023-07-03T16:35:37.324Z,4.95
2023-07-03T16:38:39.156Z,5.20
2023-07-03T16:41:40.930Z,5.20
2023-07-03T16:44:42.573Z,4.93
2023-07-03T16:47:44.237Z,4.80
2023-07-03T16:50:45.902Z,5.10
2023-07-03T16:53:48.027Z,5.53
2023-07-03T16:56:51.179Z,5.30
2023-07-03T16:59:52.804Z,5.63
2023-07-03T17:02:54.561Z,5.40
2023-07-03T17:05:56.316Z,5.22
2023-07-03T17:08:58.731Z,5.30
2023-07-03T17:12:00.365Z,4.90
2023-07-03T17:15:02.052Z,5.38
2023-07-03T17:18:05.046Z,5.17
2023-07-03T17:21:06.817Z,4.85
2023-07-03T17:24:08.561Z,4.90
2023-07-03T17:27:10.177Z,4.90
2023-07-03T17:30:12.371Z,4.53
2023-07-03T17:33:14.177Z,5.13
2023-07-03T17:36:15.778Z,4.75
2023-07-03T17:39:17.359Z,4.80
2023-07-03T17:42:19.007Z,4.90
2023-07-03T17:45:20.738Z,5.40
2023-07-03T17:48:22.562Z,5.13
2023-07-03T17:51:26.509Z,5.43
2023-07-03T17:54:28.328Z,4.93
2023-07-03T17:57:29.968Z,5.40
2023-07-03T18:00:31.761Z,5.13
2023-07-03T18:03:34.080Z,5.57
2023-07-03T18:06:36.085Z,5.10
2023-07-03T18:09:37.863Z,5.10
2023-07-03T18:12:39.596Z,4.97
2023-07-03T18:15:52.322Z,5.50
2023-07-03T18:18:54.035Z,5.43
2023-07-03T18:21:55.629Z,5.30
2023-07-03T18:24:57.368Z,5.53
2023-07-03T18:27:58.954Z,5.43
2023-07-03T18:31:02.412Z,5.00
2023-07-03T18:34:04.629Z,4.77
2023-07-03T18:37:06.313Z,5.15
2023-07-03T18:40:08.323Z,4.85
2023-07-03T18:43:09.957Z,5.32
2023-07-03T18:46:13.658Z,4.90
2023-07-03T18:49:15.654Z,4.83
2023-07-03T18:52:17.468Z,5.20
2023-07-03T18:55:19.419Z,4.93
2023-07-03T18:58:21.109Z,5.50
2023-07-03T19:01:22.846Z,5.70
2023-07-03T19:04:24.557Z,5.00
2023-07-03T19:07:26.381Z,5.22
2023-07-03T19:10:28.076Z,5.35
2023-07-03T19:13:29.814Z,5.45
2023-07-03T19:16:31.459Z,4.93
2023-07-03T19:19:33.169Z,5.47
2023-07-03T19:22:34.802Z,5.72
2023-07-03T19:25:36.444Z,5.28
2023-07-03T19:28:38.236Z,5.10
2023-07-03T19:31:39.799Z,4.70
2023-07-03T19:34:44.904Z,5.20
2023-07-03T19:37:50.226Z,5.07
2023-07-03T19:40:51.816Z,4.97
2023-07-03T19:43:53.554Z,4.97
2023-07-03T19:46:55.796Z,5.30
2023-07-03T19:49:57.523Z,5.13
2023-07-03T19:52:59.586Z,5.18
2023-07-03T19:56:01.184Z,5.03
2023-07-03T19:59:02.976Z,5.00
2023-07-03T20:02:06.362Z,5.50
2023-07-03T20:05:08.510Z,5.27
2023-07-03T20:08:10.119Z,4.78
2023-07-03T20:11:12.622Z,5.00
2023-07-03T20:14:14.181Z,5.20
2023-07-03T20:17:16.021Z,5.25
2023-07-03T20:20:17.974Z,5.60
2023-07-03T20:23:19.695Z,5.00
2023-07-03T20:26:21.372Z,5.18
2023-07-03T20:29:23.161Z,5.40
2023-07-03T20:32:25.018Z,5.80
2023-07-03T20:35:26.813Z,5.63
2023-07-03T20:38:29.315Z,5.00
2023-07-03T20:41:32.992Z,4.85
2023-07-03T20:44:35.020Z,5.40
2023-07-03T20:47:36.748Z,5.28
2023-07-03T20:50:42.694Z,5.13
2023-07-03T20:53:49.373Z,4.97
2023-07-03T20:56:51.250Z,5.07
2023-07-03T20:59:52.944Z,5.45
2023-07-03T21:02:54.813Z,5.30
2023-07-03T21:05:56.492Z,5.20
2023-07-03T21:08:59.368Z,4.95
2023-07-03T21:12:01.012Z,5.22
2023-07-03T21:15:03.062Z,5.35
2023-07-03T21:18:04.848Z,5.10
2023-07-03T21:21:10.400Z,5.20
2023-07-03T21:24:13.011Z,4.95
2023-07-03T21:27:16.491Z,5.07
2023-07-03T21:30:18.213Z,5.38
2023-07-03T21:33:23.275Z,5.40
2023-07-03T21:36:30.408Z,5.27
2023-07-03T21:39:32.039Z,5.00
2023-07-03T21:42:33.699Z,4.90
2023-07-03T21:45:35.425Z,4.97
2023-07-03T21:48:39.053Z,5.25
2023-07-03T21:51:40.712Z,5.73
2023-07-03T21:54:42.294Z,5.07
2023-07-03T21:57:43.862Z,5.55
2023-07-03T22:00:51.168Z,4.70
2023-07-03T22:03:53.467Z,5.18
2023-07-03T22:06:55.193Z,4.90
2023-07-03T22:09:56.793Z,4.72
2023-07-03T22:12:59.285Z,5.10
2023-07-03T22:16:01.064Z,5.05
2023-07-03T22:19:03.757Z,4.85
2023-07-03T22:22:06.235Z,4.70
2023-07-03T22:25:08.871Z,4.47
2023-07-03T22:28:11.223Z,4.80
2023-07-03T22:31:13.013Z,5.07
2023-07-03T22:34:14.674Z,4.85
2023-07-03T22:37:16.334Z,5.20
2023-07-03T22:40:18.106Z,4.93
2023-07-03T22:43:20.937Z,5.43
2023-07-03T22:46:23.532Z,5.15
2023-07-03T22:49:25.875Z,5.05
2023-07-03T22:52:28.703Z,4.53
2023-07-03T22:55:30.381Z,4.80
2023-07-03T22:58:33.750Z,4.78
2023-07-03T23:01:35.373Z,4.95
2023-07-03T23:04:37.010Z,4.70
2023-07-03T23:07:39.842Z,4.80
2023-07-03T23:10:53.004Z,4.63
2023-07-03T23:13:55.135Z,4.65
2023-07-03T23:16:56.908Z,4.53
2023-07-03T23:19:59.340Z,4.75
2023-07-03T23:23:01.364Z,4.70
2023-07-03T23:26:06.832Z,4.25
2023-07-03T23:29:09.206Z,4.07
2023-07-03T23:32:10.878Z,3.85
2023-07-03T23:35:12.506Z,3.67
2023-07-03T23:38:14.710Z,3.23
2023-07-03T23:41:16.965Z,3.55
2023-07-03T23:44:18.622Z,3.63
2023-07-03T23:47:20.491Z,3.47
2023-07-03T23:50:22.151Z,3.85
2023-07-03T23:53:25.832Z,4.00
2023-07-03T23:56:27.677Z,3.65
2023-07-03T23:59:29.282Z,3.38
